Fayetteville, OH (45118)

2:26 PM EDT on April 19, 2015 (GMT -0400)
Sycamore Ridge | | Change Station
CLOSE
Current Station
Personal Weather Station
Location: Blanchetser, OH
Elevation: 946 ft
Nearby Weather Stations

Elev 946 ft 39.20 °N, 83.94 °W | Updated 8 minutes ago

Rain
Rain
64.6 °F
Feels Like 64.6 °F
N
13.0
Wind Variable Wind from East
Gusts 17.0 mph

Today
High -- | Low -- °F
--% Chance of Precip.
Yesterday
High -- | Low -- °F
Precip. -- in
6:53 AM 8:16 PM
New Moon, 1% visible
Pressure 29.67 in
Visibility -9999.0 miles
Clouds Overcast 1500 ft
Dew Point 61 °F
Humidity 89%
Rainfall 0.08 in
Snow Depth Not available.
UV 3 out of 12
Pollen 4.20 out of 12
Air Quality Not available.
Flu Activity Regional
METAR KI69 191814Z AUTO 13014G21KT 096V166 OVC015 17/16 A2967 RMK AO1 PWINO

More Conditions Fewer Conditions

Pressure 29.67 in
Visibility -9999.0 miles
Clouds Overcast 1500 ft
Dew Point 61 °F
Humidity 89%
Rainfall 0.08 in
Snow Depth Not available.
UV 3 out of 12
Pollen 4.20 out of 12
Air Quality Not available.
Flu Activity Regional
METAR KI69 191814Z AUTO 13014G21KT 096V166 OVC015 17/16 A2967 RMK AO1 PWINO

More Conditions Fewer Conditions

10-Day Weather Forecast

Almanac

Astronomy

Apr. 19, 2015 Rise Set
Actual Time
Civil Twilight
Nautical Twilight
Astronomical Twilight
Moon
Length of Visible Light
Length of Day
Tomorrow will be .
, % of the Moon is Illuminated

Today's Extremes

State Highs State Lows

Community

WunderPhotos

Upload Photos

1,814,896 photos uploaded!

WunderBlogs® & News

Nearby

Air Quality

  Air Quality AQ Index Pollutant
Not available.

Snow Depth

Station Depth Elevation

Earthquake Activity

City Distance Mag. Time & Date
Minimum magnitude displayed is 2.5.

Coastal Water Temperatures

Place Temperature

Stations

Nearby Weather Stations

Station Location Temp. Windchill Dew Point Humidity Wind Precip. Elev Updated Type